Time;durP1;ratioP1;P1;durP2;ratioP2;P2;SDS_P1;SDS_P2;PMS_P1;PMS_P2;Temp;Humidity;BMP_temperature;BMP_pressure;BME280_temperature;BME280_humidity;BME280_pressure;Samples;Min_cycle;Max_cycle;Signal;HPM_P1;HPM_P2
2022/01/24 00:00:36;;;;;;;;;;;5.40;99.90;;;;;;5067825;28;19920;-45
2022/01/24 00:03:02;;;;;;;;;;;5.40;99.90;;;;;;5064007;28;20394;-44
2022/01/24 00:05:27;;;;;;;;;;;5.40;99.90;;;;;;5047777;28;19963;-45
2022/01/24 00:07:53;;;;;;;;;;;5.40;99.90;;;;;;5044775;28;19969;-47
2022/01/24 00:10:23;;;;;;;;;;;5.40;99.90;;;;;;5051804;28;19933;-46
2022/01/24 00:13:41;;;;;;;;;;;5.40;99.90;;;;;;5066013;28;20375;-45
2022/01/24 00:18:09;;;;;;;;;;;5.30;99.90;;;;;;5049552;28;19916;-45
2022/01/24 00:28:47;;;;;;;;;;;5.30;99.90;;;;;;5072781;28;19917;-45
2022/01/24 00:31:13;;;;;;;;;;;5.30;99.90;;;;;;5071329;28;19923;-45
2022/01/24 00:33:38;;;;;;;;;;;5.30;99.90;;;;;;5052344;28;19927;-45
2022/01/24 00:36:04;;;;;;;;;;;5.30;99.90;;;;;;5053817;28;20003;-46
2022/01/24 00:38:32;;;;;;;;;;;5.30;99.90;;;;;;5055601;28;19916;-45
2022/01/24 00:40:58;;;;;;;;;;;5.30;99.90;;;;;;5052847;28;20053;-45
2022/01/24 00:43:36;;;;;;;;;;;5.30;99.90;;;;;;5053498;28;20011;-45
2022/01/24 00:46:07;;;;;;;;;;;5.30;99.90;;;;;;5053517;28;20596;-44
2022/01/24 00:56:14;;;;;;;;;;;5.30;99.90;;;;;;5064208;28;19946;-44
2022/01/24 00:58:40;;;;;;;;;;;5.20;99.90;;;;;;5068233;28;19938;-44
2022/01/24 01:01:06;;;;;;;;;;;5.30;99.90;;;;;;5070639;28;19916;-45
2022/01/24 01:03:32;;;;;;;;;;;5.20;99.90;;;;;;5067500;28;19931;-46
2022/01/24 01:19:03;;;;;;;;;;;5.20;99.90;;;;;;5064385;28;19955;-45
2022/01/24 01:21:29;;;;;;;;;;;5.20;99.90;;;;;;5082862;28;19932;-45
2022/01/24 01:23:57;;;;;;;;;;;5.20;99.90;;;;;;5050039;28;20399;-44
2022/01/24 01:26:33;;;;;;;;;;;5.20;99.90;;;;;;5067780;28;20235;-45
2022/01/24 01:29:15;;;;;;;;;;;5.20;99.90;;;;;;5067510;28;20388;-46
2022/01/24 01:55:43;;;;;;;;;;;5.10;99.90;;;;;;5070325;28;19944;-46
2022/01/24 01:58:10;;;;;;;;;;;5.10;99.90;;;;;;5065779;28;20334;-45
2022/01/24 02:00:37;;;;;;;;;;;5.00;99.90;;;;;;5052256;28;19916;-45
2022/01/24 02:03:03;;;;;;;;;;;5.10;99.90;;;;;;5050759;28;19962;-45
2022/01/24 02:05:30;;;;;;;;;;;5.00;99.90;;;;;;5062471;28;20296;-45
2022/01/24 02:07:55;;;;;;;;;;;5.00;99.90;;;;;;5048675;28;20285;-46
2022/01/24 02:10:22;;;;;;;;;;;5.10;99.90;;;;;;5048447;28;19920;-47
2022/01/24 02:12:49;;;;;;;;;;;5.00;99.90;;;;;;5066654;28;20356;-45
2022/01/24 02:15:21;;;;;;;;;;;5.00;99.90;;;;;;5063561;28;20489;-47
2022/01/24 02:18:03;;;;;;;;;;;5.00;99.90;;;;;;5049458;28;20386;-45
2022/01/24 02:23:37;;;;;;;;;;;5.00;99.90;;;;;;5062156;28;19916;-46
2022/01/24 02:26:05;;;;;;;;;;;5.00;99.90;;;;;;5064853;28;19928;-46
2022/01/24 02:28:44;;;;;;;;;;;4.90;99.90;;;;;;5066926;28;19999;-46
2022/01/24 02:31:38;;;;;;;;;;;4.90;99.90;;;;;;5046364;28;20026;-46
2022/01/24 02:34:05;;;;;;;;;;;4.90;99.90;;;;;;5054389;28;20011;-47
2022/01/24 02:36:31;;;;;;;;;;;4.90;99.90;;;;;;5063291;28;19917;-48
2022/01/24 02:39:17;;;;;;;;;;;4.90;99.90;;;;;;5045787;28;19943;-45
2022/01/24 02:50:37;;;;;;;;;;;4.80;99.90;;;;;;5030422;28;20414;-45
2022/01/24 02:53:03;;;;;;;;;;;4.80;99.90;;;;;;5045701;28;20226;-44
2022/01/24 02:55:29;;;;;;;;;;;4.90;99.90;;;;;;5068265;28;19983;-46
2022/01/24 02:57:55;;;;;;;;;;;4.80;99.90;;;;;;5034051;28;20218;-46
2022/01/24 03:00:21;;;;;;;;;;;4.80;99.90;;;;;;5075281;28;19935;-45
2022/01/24 03:02:47;;;;;;;;;;;4.80;99.90;;;;;;5047013;28;19916;-45
2022/01/24 03:05:13;;;;;;;;;;;4.80;99.90;;;;;;5064562;28;20356;-45
2022/01/24 03:07:38;;;;;;;;;;;4.80;99.90;;;;;;5046230;28;19917;-46
2022/01/24 03:10:13;;;;;;;;;;;4.80;99.90;;;;;;5067020;28;19994;-46
2022/01/24 03:12:45;;;;;;;;;;;4.80;99.90;;;;;;5066965;28;19921;-44
2022/01/24 03:15:10;;;;;;;;;;;4.80;99.90;;;;;;5034918;28;20278;-45
2022/01/24 03:17:37;;;;;;;;;;;4.80;99.90;;;;;;5049339;28;19919;-47
2022/01/24 03:20:03;;;;;;;;;;;4.80;99.90;;;;;;5067920;28;19928;-45
2022/01/24 03:22:29;;;;;;;;;;;4.70;99.90;;;;;;5049086;28;19952;-45
2022/01/24 03:24:54;;;;;;;;;;;4.70;99.90;;;;;;5046730;28;19962;-44
2022/01/24 03:27:20;;;;;;;;;;;4.70;99.90;;;;;;5048598;28;19924;-45
2022/01/24 03:29:46;;;;;;;;;;;4.80;99.90;;;;;;5067924;28;19979;-45
2022/01/24 03:32:11;;;;;;;;;;;4.70;99.90;;;;;;5049549;28;19993;-46
2022/01/24 03:34:37;;;;;;;;;;;4.70;99.90;;;;;;5033945;28;20080;-46
2022/01/24 03:37:03;;;;;;;;;;;4.70;99.90;;;;;;5067980;28;19939;-46
2022/01/24 03:39:29;;;;;;;;;;;4.70;99.90;;;;;;5066112;28;19917;-45
2022/01/24 03:41:55;;;;;;;;;;;4.70;99.90;;;;;;5050430;28;19916;-45
2022/01/24 03:44:21;;;;;;;;;;;4.70;99.90;;;;;;5025855;28;20334;-46
2022/01/24 03:47:00;;;;;;;;;;;4.70;99.90;;;;;;5064046;28;19932;-44
2022/01/24 03:49:45;;;;;;;;;;;4.70;99.90;;;;;;5060933;28;20000;-46
2022/01/24 03:52:18;;;;;;;;;;;4.70;99.90;;;;;;5071064;28;20386;-49
2022/01/24 03:54:44;;;;;;;;;;;4.70;99.90;;;;;;5042109;28;19916;-48
2022/01/24 03:57:11;;;;;;;;;;;4.70;99.90;;;;;;5066785;28;20386;-45
2022/01/24 03:59:37;;;;;;;;;;;4.70;99.90;;;;;;5067946;28;20471;-45
2022/01/24 04:02:03;;;;;;;;;;;4.70;99.90;;;;;;5068764;28;19999;-45
2022/01/24 04:04:28;;;;;;;;;;;4.70;99.90;;;;;;5066565;28;20262;-44
2022/01/24 04:06:54;;;;;;;;;;;4.70;99.90;;;;;;5054824;28;20345;-46
2022/01/24 04:09:20;;;;;;;;;;;4.70;99.90;;;;;;5067765;28;19964;-46
2022/01/24 04:11:50;;;;;;;;;;;4.70;99.90;;;;;;5051367;28;20547;-44
2022/01/24 04:14:29;;;;;;;;;;;4.70;99.90;;;;;;5054929;28;19920;-47
2022/01/24 04:21:58;;;;;;;;;;;4.70;99.90;;;;;;5055032;28;20317;-44
2022/01/24 04:24:25;;;;;;;;;;;4.70;99.90;;;;;;5072643;28;19924;-45
2022/01/24 04:26:51;;;;;;;;;;;4.70;99.90;;;;;;5051384;28;19916;-44
2022/01/24 04:29:17;;;;;;;;;;;4.70;99.90;;;;;;5068949;28;20408;-45
2022/01/24 04:31:44;;;;;;;;;;;4.70;99.90;;;;;;5052524;28;19924;-46
2022/01/24 04:34:09;;;;;;;;;;;4.70;99.90;;;;;;5066691;28;19928;-46
2022/01/24 04:36:35;;;;;;;;;;;4.70;99.90;;;;;;5071013;28;20335;-47
2022/01/24 04:39:02;;;;;;;;;;;4.70;99.90;;;;;;5066011;28;20281;-46
2022/01/24 04:41:33;;;;;;;;;;;4.60;99.90;;;;;;5035868;28;19920;-45
2022/01/24 04:52:09;;;;;;;;;;;4.60;99.90;;;;;;5057668;28;19916;-45
2022/01/24 04:54:45;;;;;;;;;;;4.60;99.90;;;;;;5064295;28;20436;-45
2022/01/24 04:57:15;;;;;;;;;;;4.60;99.90;;;;;;5051286;28;20335;-45
2022/01/24 04:59:42;;;;;;;;;;;4.60;99.90;;;;;;5054201;28;19916;-45
2022/01/24 05:02:08;;;;;;;;;;;4.70;99.90;;;;;;5086188;28;19916;-44
2022/01/24 05:04:34;;;;;;;;;;;4.60;99.90;;;;;;5066063;28;19923;-44
2022/01/24 05:07:00;;;;;;;;;;;4.70;99.90;;;;;;5067005;28;19924;-45
2022/01/24 05:09:30;;;;;;;;;;;4.70;99.90;;;;;;5069355;28;19956;-46
2022/01/24 05:12:05;;;;;;;;;;;4.60;99.90;;;;;;5069849;28;19922;-47
2022/01/24 05:25:28;;;;;;;;;;;4.70;99.90;;;;;;5077813;28;19920;-45
2022/01/24 05:27:54;;;;;;;;;;;4.60;99.90;;;;;;5051638;28;19943;-44
2022/01/24 05:30:19;;;;;;;;;;;4.60;99.90;;;;;;5068460;28;19927;-45
2022/01/24 05:32:45;;;;;;;;;;;4.60;99.90;;;;;;5050907;28;19924;-45
2022/01/24 05:35:11;;;;;;;;;;;4.60;99.90;;;;;;5069406;28;20015;-47
2022/01/24 05:37:37;;;;;;;;;;;4.60;99.90;;;;;;5050517;28;19985;-47
2022/01/24 05:40:03;;;;;;;;;;;4.60;99.90;;;;;;5070883;28;20302;-45
2022/01/24 05:42:28;;;;;;;;;;;4.60;99.90;;;;;;5050302;28;20397;-45
2022/01/24 05:44:54;;;;;;;;;;;4.60;99.90;;;;;;5072423;28;19924;-44
2022/01/24 05:47:20;;;;;;;;;;;4.60;99.90;;;;;;5099828;28;19982;-47
2022/01/24 05:49:46;;;;;;;;;;;4.60;99.90;;;;;;5067829;28;19927;-45
2022/01/24 05:52:12;;;;;;;;;;;4.60;99.90;;;;;;5062041;28;19971;-46
2022/01/24 05:54:39;;;;;;;;;;;4.60;99.90;;;;;;5083113;28;19920;-45
2022/01/24 05:57:05;;;;;;;;;;;4.60;99.90;;;;;;5098104;28;19964;-45
2022/01/24 05:59:31;;;;;;;;;;;4.60;99.90;;;;;;5069599;28;19923;-45
2022/01/24 06:01:57;;;;;;;;;;;4.60;99.90;;;;;;5065664;28;20303;-50
2022/01/24 06:04:23;;;;;;;;;;;4.60;99.90;;;;;;5060937;28;19916;-45
2022/01/24 06:06:49;;;;;;;;;;;4.60;99.90;;;;;;5066163;28;20405;-47
2022/01/24 06:09:14;;;;;;;;;;;4.60;99.90;;;;;;5065108;28;20004;-45
2022/01/24 06:11:40;;;;;;;;;;;4.60;99.90;;;;;;5096256;27;20354;-45
2022/01/24 06:14:06;;;;;;;;;;;4.60;99.90;;;;;;5098748;27;20578;-45
2022/01/24 06:16:32;;;;;;;;;;;4.60;99.90;;;;;;5100099;28;19921;-45
2022/01/24 06:18:58;;;;;;;;;;;4.60;99.90;;;;;;5066218;28;19931;-50
2022/01/24 06:21:23;;;;;;;;;;;4.60;99.90;;;;;;5096696;27;20377;-47
2022/01/24 06:23:49;;;;;;;;;;;4.60;99.90;;;;;;5067497;28;19917;-46
2022/01/24 06:26:15;;;;;;;;;;;4.60;99.90;;;;;;5073721;28;19969;-45
2022/01/24 06:28:40;;;;;;;;;;;4.60;99.90;;;;;;5050614;28;19917;-45
2022/01/24 06:31:06;;;;;;;;;;;4.60;99.90;;;;;;5078880;28;19927;-46
2022/01/24 06:33:33;;;;;;;;;;;4.60;99.90;;;;;;5062227;28;20015;-47
2022/01/24 06:35:59;;;;;;;;;;;4.60;99.90;;;;;;5102278;28;19916;-47
2022/01/24 06:38:25;;;;;;;;;;;4.60;99.90;;;;;;5064454;28;20414;-49
2022/01/24 06:40:51;;;;;;;;;;;4.60;99.90;;;;;;5068803;28;19999;-47
2022/01/24 06:43:17;;;;;;;;;;;4.60;99.90;;;;;;5066460;28;19946;-46
2022/01/24 06:45:43;;;;;;;;;;;4.60;99.90;;;;;;5069202;28;19940;-46
2022/01/24 06:48:10;;;;;;;;;;;4.60;99.90;;;;;;5049643;28;19986;-47
2022/01/24 06:50:36;;;;;;;;;;;4.60;99.90;;;;;;5056346;28;19917;-45
2022/01/24 06:53:02;;;;;;;;;;;4.60;99.90;;;;;;5044676;28;20497;-46
2022/01/24 06:55:28;;;;;;;;;;;4.60;99.90;;;;;;5051653;28;19916;-46
2022/01/24 06:57:54;;;;;;;;;;;4.60;99.90;;;;;;5047835;28;19955;-45
2022/01/24 07:00:26;;;;;;;;;;;4.60;99.90;;;;;;5043197;28;19917;-47
2022/01/24 07:02:55;;;;;;;;;;;4.60;99.90;;;;;;5079545;28;20360;-46
2022/01/24 07:05:21;;;;;;;;;;;4.60;99.90;;;;;;5067632;28;20375;-45
2022/01/24 07:07:48;;;;;;;;;;;4.60;99.90;;;;;;5062899;28;19996;-46
2022/01/24 07:10:14;;;;;;;;;;;4.60;99.90;;;;;;5047524;28;19927;-46
2022/01/24 07:12:41;;;;;;;;;;;4.50;99.90;;;;;;5064363;28;20014;-47
2022/01/24 07:15:11;;;;;;;;;;;4.60;99.90;;;;;;5045929;28;19920;-48
2022/01/24 07:20:12;;;;;;;;;;;4.60;99.90;;;;;;5063793;28;19917;-46
2022/01/24 07:22:38;;;;;;;;;;;4.60;99.90;;;;;;5066750;28;20030;-45
2022/01/24 07:25:03;;;;;;;;;;;4.60;99.90;;;;;;5048577;28;19974;-45
2022/01/24 07:27:29;;;;;;;;;;;4.60;99.90;;;;;;5066564;28;20011;-45
2022/01/24 07:29:55;;;;;;;;;;;4.60;99.90;;;;;;5078127;28;20004;-45
2022/01/24 07:32:21;;;;;;;;;;;4.50;99.90;;;;;;5062659;28;20363;-45
2022/01/24 07:34:46;;;;;;;;;;;4.50;99.90;;;;;;5048403;28;19920;-47
2022/01/24 07:37:13;;;;;;;;;;;4.50;99.90;;;;;;5036157;28;19924;-46
2022/01/24 07:39:38;;;;;;;;;;;4.50;99.90;;;;;;5043044;28;20318;-45
2022/01/24 07:42:15;;;;;;;;;;;4.50;99.90;;;;;;5067767;28;20692;-45
2022/01/24 07:44:41;;;;;;;;;;;4.50;99.90;;;;;;5065876;28;19916;-46
2022/01/24 07:47:07;;;;;;;;;;;4.60;99.90;;;;;;5068842;28;20028;-45
2022/01/24 07:49:34;;;;;;;;;;;4.60;99.90;;;;;;5033079;28;19974;-46
2022/01/24 07:52:00;;;;;;;;;;;4.50;99.90;;;;;;5064743;28;19920;-46
2022/01/24 07:54:26;;;;;;;;;;;4.60;99.90;;;;;;5059422;28;19932;-46
2022/01/24 07:56:52;;;;;;;;;;;4.60;99.90;;;;;;5064117;28;19924;-46
2022/01/24 07:59:19;;;;;;;;;;;4.60;99.90;;;;;;5040686;28;20332;-45
2022/01/24 08:01:48;;;;;;;;;;;4.60;99.90;;;;;;5062321;28;19924;-46
2022/01/24 08:04:14;;;;;;;;;;;4.60;99.90;;;;;;5032800;28;19920;-48
2022/01/24 08:06:40;;;;;;;;;;;4.60;99.90;;;;;;5048168;28;20297;-45
2022/01/24 08:09:09;;;;;;;;;;;4.60;99.90;;;;;;5065156;28;20019;-45
2022/01/24 08:11:35;;;;;;;;;;;4.60;99.90;;;;;;5068425;28;19916;-45
2022/01/24 08:14:01;;;;;;;;;;;4.60;99.90;;;;;;5048432;28;19928;-48
2022/01/24 08:16:27;;;;;;;;;;;4.60;99.90;;;;;;5080848;28;20386;-46
2022/01/24 08:18:55;;;;;;;;;;;4.60;99.90;;;;;;5068216;28;19919;-46
2022/01/24 08:21:21;;;;;;;;;;;4.60;99.90;;;;;;5065056;28;19927;-46
2022/01/24 08:23:47;;;;;;;;;;;4.60;99.90;;;;;;5060113;28;19974;-48
2022/01/24 08:26:13;;;;;;;;;;;4.60;99.90;;;;;;5030086;28;19925;-46
2022/01/24 08:28:39;;;;;;;;;;;4.60;99.90;;;;;;5045806;28;19920;-47
2022/01/24 08:31:05;;;;;;;;;;;4.70;99.90;;;;;;5081657;28;19943;-45
2022/01/24 08:33:31;;;;;;;;;;;4.70;99.90;;;;;;5064204;28;19928;-45
2022/01/24 08:35:57;;;;;;;;;;;4.70;99.90;;;;;;5064983;28;19924;-45
2022/01/24 08:38:23;;;;;;;;;;;4.70;99.90;;;;;;5059769;28;20290;-45
2022/01/24 08:40:52;;;;;;;;;;;4.70;99.90;;;;;;5063486;28;19999;-46
2022/01/24 08:43:56;;;;;;;;;;;4.70;99.90;;;;;;5026897;28;19924;-46
2022/01/24 08:46:22;;;;;;;;;;;4.70;99.90;;;;;;5056641;28;19947;-48
2022/01/24 08:48:48;;;;;;;;;;;4.70;99.90;;;;;;5048699;28;19960;-46
2022/01/24 08:51:14;;;;;;;;;;;4.70;99.90;;;;;;5049910;28;19963;-46
2022/01/24 08:53:40;;;;;;;;;;;4.80;99.90;;;;;;5081645;28;20399;-45
2022/01/24 08:56:06;;;;;;;;;;;4.80;99.90;;;;;;5063645;28;19956;-45
2022/01/24 08:58:32;;;;;;;;;;;4.80;99.90;;;;;;5068654;28;20358;-47
2022/01/24 09:00:58;;;;;;;;;;;4.80;99.90;;;;;;5036026;28;20701;-45
2022/01/24 09:03:25;;;;;;;;;;;4.80;99.90;;;;;;5071215;28;19995;-45
2022/01/24 09:05:53;;;;;;;;;;;4.80;99.90;;;;;;5056130;28;20007;-46
2022/01/24 09:08:19;;;;;;;;;;;4.80;99.90;;;;;;5050209;28;20011;-46
2022/01/24 09:10:47;;;;;;;;;;;4.80;99.90;;;;;;5051770;28;19964;-45
2022/01/24 09:13:13;;;;;;;;;;;4.80;99.90;;;;;;5069262;28;19927;-45
2022/01/24 09:15:38;;;;;;;;;;;4.90;99.90;;;;;;5034993;28;19916;-46
2022/01/24 09:18:04;;;;;;;;;;;4.90;99.90;;;;;;5055552;28;20271;-47
2022/01/24 09:20:30;;;;;;;;;;;4.90;99.90;;;;;;5050921;28;19966;-46
2022/01/24 09:22:56;;;;;;;;;;;4.90;99.90;;;;;;5067128;28;19966;-46
2022/01/24 09:25:22;;;;;;;;;;;4.90;99.90;;;;;;5085535;28;20268;-46
2022/01/24 09:27:48;;;;;;;;;;;4.90;99.90;;;;;;5070475;28;19951;-45
2022/01/24 09:30:15;;;;;;;;;;;5.00;99.90;;;;;;5034939;28;20019;-46
2022/01/24 09:32:41;;;;;;;;;;;5.00;99.90;;;;;;5070031;28;19936;-46
2022/01/24 09:35:08;;;;;;;;;;;5.00;99.90;;;;;;5050431;28;20002;-46
2022/01/24 09:37:35;;;;;;;;;;;5.00;99.90;;;;;;5054002;28;19977;-46
2022/01/24 09:40:03;;;;;;;;;;;5.00;99.90;;;;;;5085213;28;19917;-45
2022/01/24 09:42:29;;;;;;;;;;;5.00;99.90;;;;;;5069167;28;19924;-46
2022/01/24 09:44:55;;;;;;;;;;;5.00;99.90;;;;;;5068322;28;19916;-45
2022/01/24 09:47:21;;;;;;;;;;;5.00;99.90;;;;;;5052247;28;19990;-46
2022/01/24 09:49:47;;;;;;;;;;;5.00;99.90;;;;;;5052046;28;20374;-47
2022/01/24 09:52:14;;;;;;;;;;;5.10;99.90;;;;;;5069363;28;19916;-46
2022/01/24 09:54:39;;;;;;;;;;;5.10;99.90;;;;;;5071423;28;20011;-45
2022/01/24 09:57:06;;;;;;;;;;;5.10;99.90;;;;;;5050515;28;20363;-46
2022/01/24 09:59:32;;;;;;;;;;;5.10;99.90;;;;;;5067651;28;19924;-46
2022/01/24 10:01:58;;;;;;;;;;;5.10;99.90;;;;;;5049117;28;19962;-46
2022/01/24 10:04:25;;;;;;;;;;;5.20;99.90;;;;;;5053340;28;21189;-46
2022/01/24 10:06:56;;;;;;;;;;;5.20;99.90;;;;;;5044757;28;19935;-46
2022/01/24 10:09:33;;;;;;;;;;;5.20;99.90;;;;;;5081445;28;19917;-46
2022/01/24 10:17:48;;;;;;;;;;;5.20;99.90;;;;;;5040114;28;20003;-45
2022/01/24 10:20:16;;;;;;;;;;;5.30;99.90;;;;;;5046134;28;20345;-46
2022/01/24 10:22:42;;;;;;;;;;;5.20;99.90;;;;;;5066871;28;20013;-45
2022/01/24 10:25:09;;;;;;;;;;;5.20;99.90;;;;;;5065225;28;19982;-45
2022/01/24 10:27:35;;;;;;;;;;;5.30;99.90;;;;;;5081206;28;20349;-46
2022/01/24 10:30:03;;;;;;;;;;;5.30;99.90;;;;;;5048193;28;19920;-47
2022/01/24 10:32:31;;;;;;;;;;;5.30;99.90;;;;;;5050834;28;20024;-47
2022/01/24 10:35:17;;;;;;;;;;;5.30;99.90;;;;;;5067461;28;19999;-45
2022/01/24 10:37:43;;;;;;;;;;;5.30;99.90;;;;;;5032337;28;19916;-47
2022/01/24 10:40:19;;;;;;;;;;;5.30;99.90;;;;;;5026537;28;19923;-48
2022/01/24 10:42:53;;;;;;;;;;;5.30;99.90;;;;;;5081996;28;19916;-46
2022/01/24 10:45:22;;;;;;;;;;;5.30;99.90;;;;;;5068004;28;19976;-46
2022/01/24 10:47:49;;;;;;;;;;;5.30;99.90;;;;;;5072156;28;20274;-45
2022/01/24 10:50:24;;;;;;;;;;;5.30;99.90;;;;;;5051061;28;20408;-45
2022/01/24 10:52:50;;;;;;;;;;;5.30;99.90;;;;;;5087458;28;19939;-46
2022/01/24 10:55:19;;;;;;;;;;;5.30;99.90;;;;;;5053705;28;19924;-46
2022/01/24 10:57:50;;;;;;;;;;;5.30;99.90;;;;;;5086563;28;19916;-45
2022/01/24 11:00:18;;;;;;;;;;;5.30;99.90;;;;;;5069571;28;19926;-45
2022/01/24 11:02:45;;;;;;;;;;;5.40;99.90;;;;;;5066490;28;19916;-47
2022/01/24 11:05:10;;;;;;;;;;;5.40;99.90;;;;;;5054461;28;19920;-46
2022/01/24 11:07:56;;;;;;;;;;;5.40;99.90;;;;;;5073336;28;20421;-46
2022/01/24 11:10:24;;;;;;;;;;;5.40;99.90;;;;;;5087137;28;19959;-45
2022/01/24 11:12:50;;;;;;;;;;;5.40;99.90;;;;;;5067351;28;19948;-45
2022/01/24 11:15:16;;;;;;;;;;;5.40;99.90;;;;;;5085200;28;19945;-47
2022/01/24 11:17:43;;;;;;;;;;;5.40;99.90;;;;;;5069537;28;20022;-45
2022/01/24 11:20:15;;;;;;;;;;;5.40;99.90;;;;;;5073639;28;20281;-46
2022/01/24 11:22:45;;;;;;;;;;;5.40;99.90;;;;;;5089217;28;19946;-46
2022/01/24 11:25:12;;;;;;;;;;;5.40;99.90;;;;;;5069914;28;20409;-45
2022/01/24 11:27:39;;;;;;;;;;;5.40;99.90;;;;;;5070253;28;19999;-49
2022/01/24 11:30:10;;;;;;;;;;;5.50;99.90;;;;;;5088853;28;19934;-45
2022/01/24 11:32:38;;;;;;;;;;;5.50;99.90;;;;;;5072144;28;19939;-45
2022/01/24 11:35:05;;;;;;;;;;;5.40;99.90;;;;;;5082654;28;19962;-46
2022/01/24 11:37:38;;;;;;;;;;;5.50;99.90;;;;;;5066240;28;20002;-46
2022/01/24 11:40:07;;;;;;;;;;;5.40;99.90;;;;;;5070582;28;19916;-45
2022/01/24 11:42:35;;;;;;;;;;;5.50;99.90;;;;;;5068128;28;20015;-46
2022/01/24 11:45:10;;;;;;;;;;;5.50;99.90;;;;;;5069470;28;20346;-45
2022/01/24 11:47:36;;;;;;;;;;;5.50;99.90;;;;;;5066789;28;19930;-46
2022/01/24 11:50:21;;;;;;;;;;;5.50;99.90;;;;;;5085122;28;20002;-46
2022/01/24 11:52:46;;;;;;;;;;;5.50;99.90;;;;;;5088173;28;19928;-46
2022/01/24 11:55:20;;;;;;;;;;;5.50;99.90;;;;;;5083094;28;19924;-47
2022/01/24 11:57:49;;;;;;;;;;;5.50;99.90;;;;;;5068571;28;19916;-46
2022/01/24 12:00:20;;;;;;;;;;;5.50;99.90;;;;;;5087745;28;19916;-45
2022/01/24 12:02:49;;;;;;;;;;;5.50;99.90;;;;;;5086979;28;20003;-46
2022/01/24 12:05:16;;;;;;;;;;;5.50;99.90;;;;;;5086966;28;19928;-46
2022/01/24 12:07:46;;;;;;;;;;;5.50;99.90;;;;;;5085314;28;19916;-47
2022/01/24 12:10:33;;;;;;;;;;;5.40;99.90;;;;;;5087618;28;19972;-46
2022/01/24 12:13:03;;;;;;;;;;;5.40;99.90;;;;;;5067848;28;20007;-44
2022/01/24 12:15:41;;;;;;;;;;;5.40;99.90;;;;;;5088027;28;19955;-45
2022/01/24 12:18:08;;;;;;;;;;;5.40;99.90;;;;;;5086021;28;20417;-45
2022/01/24 12:20:37;;;;;;;;;;;5.40;99.90;;;;;;5088535;28;19976;-45
2022/01/24 12:23:19;;;;;;;;;;;5.40;99.90;;;;;;5088693;28;19916;-47
2022/01/24 12:25:54;;;;;;;;;;;5.40;99.90;;;;;;5070345;28;19920;-45
2022/01/24 12:28:27;;;;;;;;;;;5.40;99.90;;;;;;5073430;28;19924;-46
2022/01/24 12:31:00;;;;;;;;;;;5.40;99.90;;;;;;5085804;28;20267;-45
2022/01/24 12:33:30;;;;;;;;;;;5.40;99.90;;;;;;5090402;28;20410;-46
2022/01/24 12:35:56;;;;;;;;;;;5.40;99.90;;;;;;5089101;28;20002;-47
2022/01/24 12:38:22;;;;;;;;;;;5.40;99.90;;;;;;5057921;28;20002;-47
2022/01/24 12:40:48;;;;;;;;;;;5.40;99.90;;;;;;5059416;28;19916;-46
2022/01/24 12:43:29;;;;;;;;;;;5.40;99.90;;;;;;5091615;28;19924;-46
2022/01/24 12:48:39;;;;;;;;;;;5.50;99.90;;;;;;5069744;28;19928;-48
2022/01/24 12:51:07;;;;;;;;;;;5.50;99.90;;;;;;5051326;28;20270;-47
2022/01/24 12:53:37;;;;;;;;;;;5.50;99.90;;;;;;5072296;28;19920;-46
2022/01/24 12:56:04;;;;;;;;;;;5.50;99.90;;;;;;5069243;28;19916;-46
2022/01/24 12:58:40;;;;;;;;;;;5.50;99.90;;;;;;5047180;28;19917;-45
2022/01/24 13:01:19;;;;;;;;;;;5.50;99.90;;;;;;5071868;28;19931;-46
2022/01/24 13:04:06;;;;;;;;;;;5.50;99.90;;;;;;5081090;28;19977;-45
2022/01/24 13:06:35;;;;;;;;;;;5.50;99.90;;;;;;5067224;28;19943;-45
2022/01/24 13:09:16;;;;;;;;;;;5.40;99.90;;;;;;5052529;28;19920;-48
2022/01/24 13:11:45;;;;;;;;;;;5.40;99.90;;;;;;5069041;28;19962;-45
2022/01/24 13:14:15;;;;;;;;;;;5.40;99.90;;;;;;5051692;28;20016;-45
2022/01/24 13:22:28;;;;;;;;;;;5.40;99.90;;;;;;5067860;28;20535;-45
2022/01/24 13:25:09;;;;;;;;;;;5.40;99.90;;;;;;5067873;28;20012;-45
2022/01/24 13:27:35;;;;;;;;;;;5.40;99.90;;;;;;5069342;28;20003;-45
2022/01/24 13:30:06;;;;;;;;;;;5.40;99.90;;;;;;5069950;28;20050;-45
2022/01/24 13:32:42;;;;;;;;;;;5.40;99.90;;;;;;5066562;28;19978;-46
2022/01/24 13:35:15;;;;;;;;;;;5.30;99.90;;;;;;5086470;28;20018;-45
2022/01/24 13:37:41;;;;;;;;;;;5.30;99.90;;;;;;5050318;28;19923;-44
2022/01/24 13:40:07;;;;;;;;;;;5.30;99.90;;;;;;5052890;28;19920;-46
2022/01/24 13:42:37;;;;;;;;;;;5.30;99.90;;;;;;5069024;28;19928;-45
2022/01/24 13:45:03;;;;;;;;;;;5.40;99.90;;;;;;5052193;28;19916;-47
2022/01/24 13:47:29;;;;;;;;;;;5.30;99.90;;;;;;5049602;28;19935;-46
2022/01/24 13:49:55;;;;;;;;;;;5.30;99.90;;;;;;5068605;28;20320;-46
2022/01/24 13:52:23;;;;;;;;;;;5.30;99.90;;;;;;5064651;28;19916;-45
2022/01/24 13:54:49;;;;;;;;;;;5.40;99.90;;;;;;5050908;28;19956;-45
2022/01/24 13:57:19;;;;;;;;;;;5.30;99.90;;;;;;5066567;28;19998;-47
2022/01/24 13:59:46;;;;;;;;;;;5.30;99.90;;;;;;5066988;28;20343;-45
2022/01/24 14:02:22;;;;;;;;;;;5.40;99.90;;;;;;5066609;28;19978;-46
2022/01/24 14:04:49;;;;;;;;;;;5.30;99.90;;;;;;5083244;28;19920;-45
2022/01/24 14:07:16;;;;;;;;;;;5.30;99.90;;;;;;5066620;28;20421;-46
2022/01/24 14:09:45;;;;;;;;;;;5.30;99.90;;;;;;5066797;28;19978;-45
2022/01/24 14:12:13;;;;;;;;;;;5.30;99.90;;;;;;5062324;28;20503;-45
2022/01/24 14:14:47;;;;;;;;;;;5.30;99.90;;;;;;5063684;28;19924;-46
2022/01/24 14:17:43;;;;;;;;;;;5.30;99.90;;;;;;5048103;28;19974;-45
2022/01/24 14:20:09;;;;;;;;;;;5.30;99.90;;;;;;5066729;28;20010;-45
2022/01/24 14:22:42;;;;;;;;;;;5.20;99.90;;;;;;5045640;28;19920;-45
2022/01/24 14:25:12;;;;;;;;;;;5.20;99.90;;;;;;5030369;28;19935;-44
2022/01/24 14:27:39;;;;;;;;;;;5.20;99.90;;;;;;5068505;28;19933;-46
2022/01/24 14:30:05;;;;;;;;;;;5.20;99.90;;;;;;5057889;28;19947;-44
2022/01/24 14:32:34;;;;;;;;;;;5.10;99.90;;;;;;5064506;28;20367;-44
2022/01/24 14:35:05;;;;;;;;;;;5.10;99.90;;;;;;5065969;28;19916;-44
2022/01/24 14:37:53;;;;;;;;;;;5.10;99.90;;;;;;5067702;28;20042;-44
2022/01/24 14:40:35;;;;;;;;;;;5.10;99.90;;;;;;5066933;28;19950;-44
2022/01/24 14:45:45;;;;;;;;;;;5.10;99.90;;;;;;5066539;28;19924;-45
2022/01/24 14:48:10;;;;;;;;;;;5.00;99.90;;;;;;5067997;28;19924;-46
2022/01/24 14:50:36;;;;;;;;;;;5.00;99.90;;;;;;5069516;28;20259;-44
2022/01/24 14:53:04;;;;;;;;;;;5.00;99.90;;;;;;5032368;28;19928;-45
2022/01/24 14:55:30;;;;;;;;;;;5.00;99.90;;;;;;5068502;28;20129;-44
2022/01/24 14:57:55;;;;;;;;;;;5.00;99.90;;;;;;5051334;28;20257;-45
2022/01/24 15:00:22;;;;;;;;;;;5.00;99.90;;;;;;5068188;28;19928;-45
2022/01/24 15:02:47;;;;;;;;;;;5.00;99.90;;;;;;5068590;28;20589;-44
2022/01/24 15:05:15;;;;;;;;;;;5.00;99.90;;;;;;5047209;28;19920;-45
2022/01/24 15:07:41;;;;;;;;;;;4.90;99.90;;;;;;5029425;28;19925;-46
2022/01/24 15:10:08;;;;;;;;;;;5.00;99.90;;;;;;5051289;28;19927;-45
2022/01/24 15:12:37;;;;;;;;;;;4.90;99.90;;;;;;5041357;28;20239;-44
2022/01/24 15:15:05;;;;;;;;;;;4.90;99.90;;;;;;5048413;28;19924;-44
2022/01/24 15:25:46;;;;;;;;;;;4.90;99.90;;;;;;5065155;28;19974;-45
2022/01/24 15:28:17;;;;;;;;;;;4.90;99.90;;;;;;5046681;28;19924;-45
2022/01/24 15:30:43;;;;;;;;;;;4.90;99.90;;;;;;5047399;28;19916;-45
2022/01/24 15:33:09;;;;;;;;;;;4.90;99.90;;;;;;5030814;28;19928;-46
2022/01/24 15:35:35;;;;;;;;;;;4.80;99.90;;;;;;5068892;28;20259;-45
2022/01/24 15:38:03;;;;;;;;;;;4.90;99.90;;;;;;5052140;28;20244;-45
2022/01/24 15:40:30;;;;;;;;;;;4.80;99.90;;;;;;5031913;28;20373;-45
2022/01/24 15:43:06;;;;;;;;;;;4.80;99.90;;;;;;5049970;28;19931;-44
2022/01/24 15:45:59;;;;;;;;;;;4.80;99.90;;;;;;5052072;28;19924;-44
2022/01/24 15:48:25;;;;;;;;;;;4.80;99.90;;;;;;5085450;28;19963;-45
2022/01/24 15:50:51;;;;;;;;;;;4.80;99.90;;;;;;5087919;28;20345;-44
2022/01/24 15:53:16;;;;;;;;;;;4.80;99.90;;;;;;5036498;28;20007;-45
2022/01/24 15:56:11;;;;;;;;;;;4.70;99.90;;;;;;5087541;28;21636;-46
2022/01/24 15:58:30;;;;;;;;;;;4.70;99.90;;;;;;5073488;28;20385;-45
2022/01/24 16:00:56;;;;;;;;;;;4.70;99.90;;;;;;5072677;28;19924;-46
2022/01/24 16:03:21;;;;;;;;;;;4.70;99.90;;;;;;5056884;28;19927;-46
2022/01/24 16:05:47;;;;;;;;;;;4.70;99.90;;;;;;5087968;28;20327;-46
2022/01/24 16:08:16;;;;;;;;;;;4.70;99.90;;;;;;5073341;28;19924;-45
2022/01/24 16:10:42;;;;;;;;;;;4.70;99.90;;;;;;5070490;28;19916;-44
2022/01/24 16:13:09;;;;;;;;;;;4.70;99.90;;;;;;5089894;28;19981;-46
2022/01/24 16:15:35;;;;;;;;;;;4.70;99.90;;;;;;5072739;28;19920;-45
2022/01/24 16:18:02;;;;;;;;;;;4.70;99.90;;;;;;5072026;28;19986;-44
2022/01/24 16:20:39;;;;;;;;;;;4.80;99.90;;;;;;5072524;28;19930;-44
2022/01/24 16:25:38;;;;;;;;;;;4.70;99.90;;;;;;5092080;28;19958;-45
2022/01/24 16:28:06;;;;;;;;;;;4.70;99.90;;;;;;5088889;28;19916;-45
2022/01/24 16:30:32;;;;;;;;;;;4.70;99.90;;;;;;5091527;28;19924;-45
2022/01/24 16:32:58;;;;;;;;;;;4.70;99.90;;;;;;5074792;28;19931;-45
2022/01/24 16:35:24;;;;;;;;;;;4.60;99.90;;;;;;5053553;28;19920;-46
2022/01/24 16:37:51;;;;;;;;;;;4.60;99.90;;;;;;5090385;28;19924;-46
2022/01/24 16:40:25;;;;;;;;;;;4.60;99.90;;;;;;5073283;28;19967;-46